sensor_id;sensor_type;location;lat;lon;timestamp;P1;durP1;ratioP1;P2;durP2;ratioP2
25111;SDS011;13092;51.996;4.458;2023-04-07T00:00:32;32.63;;;29.13;;
25111;SDS011;13092;51.996;4.458;2023-04-07T00:03:01;31.65;;;28.83;;
25111;SDS011;13092;51.996;4.458;2023-04-07T00:05:34;30.98;;;28.02;;
25111;SDS011;13092;51.996;4.458;2023-04-07T00:08:02;31.60;;;28.58;;
25111;SDS011;13092;51.996;4.458;2023-04-07T00:10:33;32.40;;;29.33;;
25111;SDS011;13092;51.996;4.458;2023-04-07T00:13:01;34.10;;;28.45;;
25111;SDS011;13092;51.996;4.458;2023-04-07T00:15:30;30.95;;;27.85;;
25111;SDS011;13092;51.996;4.458;2023-04-07T00:17:58;41.63;;;29.25;;
25111;SDS011;13092;51.996;4.458;2023-04-07T00:20:26;31.55;;;28.35;;
25111;SDS011;13092;51.996;4.458;2023-04-07T00:22:56;30.83;;;27.73;;
25111;SDS011;13092;51.996;4.458;2023-04-07T00:25:24;31.42;;;28.05;;
25111;SDS011;13092;51.996;4.458;2023-04-07T00:27:52;30.50;;;27.58;;
25111;SDS011;13092;51.996;4.458;2023-04-07T00:30:20;31.23;;;27.98;;
25111;SDS011;13092;51.996;4.458;2023-04-07T00:32:49;31.40;;;27.50;;
25111;SDS011;13092;51.996;4.458;2023-04-07T00:35:17;31.80;;;27.70;;
25111;SDS011;13092;51.996;4.458;2023-04-07T00:37:46;30.80;;;27.52;;
25111;SDS011;13092;51.996;4.458;2023-04-07T00:40:15;31.10;;;27.90;;
25111;SDS011;13092;51.996;4.458;2023-04-07T00:42:44;30.63;;;27.50;;
25111;SDS011;13092;51.996;4.458;2023-04-07T00:45:12;34.75;;;27.70;;
25111;SDS011;13092;51.996;4.458;2023-04-07T00:47:40;30.98;;;27.85;;
25111;SDS011;13092;51.996;4.458;2023-04-07T00:50:09;36.58;;;29.52;;
25111;SDS011;13092;51.996;4.458;2023-04-07T00:52:38;31.35;;;28.15;;
25111;SDS011;13092;51.996;4.458;2023-04-07T00:55:07;30.65;;;27.52;;
25111;SDS011;13092;51.996;4.458;2023-04-07T00:57:37;31.77;;;28.15;;
25111;SDS011;13092;51.996;4.458;2023-04-07T01:00:08;31.45;;;27.52;;
25111;SDS011;13092;51.996;4.458;2023-04-07T01:02:40;31.27;;;28.05;;
25111;SDS011;13092;51.996;4.458;2023-04-07T01:05:14;33.70;;;28.38;;
25111;SDS011;13092;51.996;4.458;2023-04-07T01:07:47;34.92;;;29.23;;
25111;SDS011;13092;51.996;4.458;2023-04-07T01:10:32;34.42;;;28.17;;
25111;SDS011;13092;51.996;4.458;2023-04-07T01:13:10;31.38;;;28.00;;
25111;SDS011;13092;51.996;4.458;2023-04-07T01:15:49;31.07;;;27.90;;
25111;SDS011;13092;51.996;4.458;2023-04-07T01:18:22;30.63;;;27.58;;
25111;SDS011;13092;51.996;4.458;2023-04-07T01:20:55;32.15;;;27.85;;
25111;SDS011;13092;51.996;4.458;2023-04-07T01:23:35;30.60;;;27.37;;
25111;SDS011;13092;51.996;4.458;2023-04-07T01:26:16;30.65;;;27.48;;
25111;SDS011;13092;51.996;4.458;2023-04-07T01:31:41;30.35;;;27.17;;
25111;SDS011;13092;51.996;4.458;2023-04-07T01:34:11;31.27;;;28.08;;
25111;SDS011;13092;51.996;4.458;2023-04-07T01:36:40;30.50;;;27.33;;
25111;SDS011;13092;51.996;4.458;2023-04-07T01:39:10;32.10;;;28.25;;
25111;SDS011;13092;51.996;4.458;2023-04-07T01:41:39;31.45;;;28.25;;
25111;SDS011;13092;51.996;4.458;2023-04-07T01:44:08;29.98;;;27.17;;
25111;SDS011;13092;51.996;4.458;2023-04-07T01:46:37;29.02;;;26.58;;
25111;SDS011;13092;51.996;4.458;2023-04-07T01:49:07;31.05;;;27.83;;
25111;SDS011;13092;51.996;4.458;2023-04-07T01:51:38;30.48;;;27.40;;
25111;SDS011;13092;51.996;4.458;2023-04-07T01:54:07;30.55;;;27.45;;
25111;SDS011;13092;51.996;4.458;2023-04-07T01:56:36;34.15;;;28.83;;
25111;SDS011;13092;51.996;4.458;2023-04-07T01:59:05;32.17;;;27.63;;
25111;SDS011;13092;51.996;4.458;2023-04-07T02:01:33;31.05;;;27.92;;
25111;SDS011;13092;51.996;4.458;2023-04-07T02:04:04;30.35;;;27.02;;
25111;SDS011;13092;51.996;4.458;2023-04-07T02:06:41;33.28;;;28.30;;
25111;SDS011;13092;51.996;4.458;2023-04-07T02:09:16;31.85;;;28.55;;
25111;SDS011;13092;51.996;4.458;2023-04-07T02:11:49;33.67;;;27.40;;
25111;SDS011;13092;51.996;4.458;2023-04-07T02:14:18;30.67;;;27.77;;
25111;SDS011;13092;51.996;4.458;2023-04-07T02:16:52;30.73;;;27.42;;
25111;SDS011;13092;51.996;4.458;2023-04-07T02:19:23;30.45;;;27.17;;
25111;SDS011;13092;51.996;4.458;2023-04-07T02:21:52;30.55;;;27.80;;
25111;SDS011;13092;51.996;4.458;2023-04-07T02:24:21;30.80;;;27.70;;
25111;SDS011;13092;51.996;4.458;2023-04-07T02:26:49;30.63;;;27.40;;
25111;SDS011;13092;51.996;4.458;2023-04-07T02:29:17;31.25;;;27.90;;
25111;SDS011;13092;51.996;4.458;2023-04-07T02:31:45;30.58;;;27.63;;
25111;SDS011;13092;51.996;4.458;2023-04-07T02:34:13;30.90;;;27.58;;
25111;SDS011;13092;51.996;4.458;2023-04-07T02:36:45;31.13;;;27.83;;
25111;SDS011;13092;51.996;4.458;2023-04-07T02:39:13;31.65;;;28.35;;
25111;SDS011;13092;51.996;4.458;2023-04-07T02:41:41;30.10;;;27.17;;
25111;SDS011;13092;51.996;4.458;2023-04-07T02:44:10;30.92;;;28.13;;
25111;SDS011;13092;51.996;4.458;2023-04-07T02:46:40;29.08;;;26.48;;
25111;SDS011;13092;51.996;4.458;2023-04-07T02:49:08;30.83;;;27.70;;
25111;SDS011;13092;51.996;4.458;2023-04-07T02:51:36;30.73;;;27.80;;
25111;SDS011;13092;51.996;4.458;2023-04-07T02:54:09;31.08;;;27.98;;
25111;SDS011;13092;51.996;4.458;2023-04-07T02:56:37;31.73;;;28.40;;
25111;SDS011;13092;51.996;4.458;2023-04-07T02:59:05;30.63;;;27.90;;
25111;SDS011;13092;51.996;4.458;2023-04-07T03:01:33;30.95;;;27.85;;
25111;SDS011;13092;51.996;4.458;2023-04-07T03:04:02;29.83;;;27.13;;
25111;SDS011;13092;51.996;4.458;2023-04-07T03:06:30;30.58;;;27.75;;
25111;SDS011;13092;51.996;4.458;2023-04-07T03:08:58;30.10;;;26.98;;
25111;SDS011;13092;51.996;4.458;2023-04-07T03:11:29;29.90;;;26.75;;
25111;SDS011;13092;51.996;4.458;2023-04-07T03:13:58;31.00;;;27.38;;
25111;SDS011;13092;51.996;4.458;2023-04-07T03:16:27;29.65;;;26.77;;
25111;SDS011;13092;51.996;4.458;2023-04-07T03:18:58;29.45;;;26.55;;
25111;SDS011;13092;51.996;4.458;2023-04-07T03:21:26;30.10;;;27.02;;
25111;SDS011;13092;51.996;4.458;2023-04-07T03:23:57;30.92;;;27.65;;
25111;SDS011;13092;51.996;4.458;2023-04-07T03:26:25;29.67;;;26.98;;
25111;SDS011;13092;51.996;4.458;2023-04-07T03:28:54;30.95;;;27.55;;
25111;SDS011;13092;51.996;4.458;2023-04-07T03:31:25;29.70;;;27.10;;
25111;SDS011;13092;51.996;4.458;2023-04-07T03:33:53;30.83;;;28.05;;
25111;SDS011;13092;51.996;4.458;2023-04-07T03:36:25;31.30;;;28.52;;
25111;SDS011;13092;51.996;4.458;2023-04-07T03:38:54;30.55;;;27.77;;
25111;SDS011;13092;51.996;4.458;2023-04-07T03:41:22;30.67;;;27.63;;
25111;SDS011;13092;51.996;4.458;2023-04-07T03:43:50;30.63;;;27.98;;
25111;SDS011;13092;51.996;4.458;2023-04-07T03:46:20;31.42;;;28.45;;
25111;SDS011;13092;51.996;4.458;2023-04-07T03:48:51;30.65;;;27.88;;
25111;SDS011;13092;51.996;4.458;2023-04-07T03:51:19;30.67;;;28.15;;
25111;SDS011;13092;51.996;4.458;2023-04-07T03:53:47;32.40;;;29.35;;
25111;SDS011;13092;51.996;4.458;2023-04-07T03:56:16;32.15;;;29.17;;
25111;SDS011;13092;51.996;4.458;2023-04-07T03:58:44;30.65;;;28.35;;
25111;SDS011;13092;51.996;4.458;2023-04-07T04:01:14;31.15;;;28.52;;
25111;SDS011;13092;51.996;4.458;2023-04-07T04:03:43;31.52;;;28.67;;
25111;SDS011;13092;51.996;4.458;2023-04-07T04:06:16;31.67;;;28.77;;
25111;SDS011;13092;51.996;4.458;2023-04-07T04:08:44;31.17;;;28.48;;
25111;SDS011;13092;51.996;4.458;2023-04-07T04:11:12;31.27;;;28.25;;
25111;SDS011;13092;51.996;4.458;2023-04-07T04:13:42;32.55;;;29.52;;
25111;SDS011;13092;51.996;4.458;2023-04-07T04:16:11;32.15;;;28.95;;
25111;SDS011;13092;51.996;4.458;2023-04-07T04:18:40;31.92;;;29.05;;
25111;SDS011;13092;51.996;4.458;2023-04-07T04:21:10;31.95;;;29.10;;
25111;SDS011;13092;51.996;4.458;2023-04-07T04:23:38;31.92;;;29.10;;
25111;SDS011;13092;51.996;4.458;2023-04-07T04:26:06;32.53;;;29.63;;
25111;SDS011;13092;51.996;4.458;2023-04-07T04:28:34;31.17;;;28.60;;
25111;SDS011;13092;51.996;4.458;2023-04-07T04:31:04;31.15;;;28.42;;
25111;SDS011;13092;51.996;4.458;2023-04-07T04:33:35;31.92;;;28.92;;
25111;SDS011;13092;51.996;4.458;2023-04-07T04:36:03;30.85;;;28.23;;
25111;SDS011;13092;51.996;4.458;2023-04-07T04:38:33;31.30;;;28.73;;
25111;SDS011;13092;51.996;4.458;2023-04-07T04:41:02;31.33;;;28.55;;
25111;SDS011;13092;51.996;4.458;2023-04-07T04:43:30;31.63;;;28.75;;
25111;SDS011;13092;51.996;4.458;2023-04-07T04:45:59;31.40;;;28.48;;
25111;SDS011;13092;51.996;4.458;2023-04-07T04:48:27;31.98;;;29.23;;
25111;SDS011;13092;51.996;4.458;2023-04-07T04:50:58;31.15;;;28.02;;
25111;SDS011;13092;51.996;4.458;2023-04-07T04:53:26;31.67;;;28.98;;
25111;SDS011;13092;51.996;4.458;2023-04-07T04:55:55;31.48;;;28.88;;
25111;SDS011;13092;51.996;4.458;2023-04-07T04:58:23;32.58;;;29.48;;
25111;SDS011;13092;51.996;4.458;2023-04-07T05:00:52;31.05;;;28.42;;
25111;SDS011;13092;51.996;4.458;2023-04-07T05:03:23;32.08;;;29.25;;
25111;SDS011;13092;51.996;4.458;2023-04-07T05:05:52;31.13;;;28.52;;
25111;SDS011;13092;51.996;4.458;2023-04-07T05:08:21;31.90;;;28.83;;
25111;SDS011;13092;51.996;4.458;2023-04-07T05:10:49;31.60;;;28.83;;
25111;SDS011;13092;51.996;4.458;2023-04-07T05:13:24;32.08;;;29.25;;
25111;SDS011;13092;51.996;4.458;2023-04-07T05:15:53;31.90;;;29.23;;
25111;SDS011;13092;51.996;4.458;2023-04-07T05:18:21;31.73;;;29.13;;
25111;SDS011;13092;51.996;4.458;2023-04-07T05:20:50;31.42;;;28.55;;
25111;SDS011;13092;51.996;4.458;2023-04-07T05:23:18;32.05;;;29.08;;
25111;SDS011;13092;51.996;4.458;2023-04-07T05:25:46;33.08;;;29.52;;
25111;SDS011;13092;51.996;4.458;2023-04-07T05:28:14;33.17;;;29.60;;
25111;SDS011;13092;51.996;4.458;2023-04-07T05:30:44;32.17;;;29.38;;
25111;SDS011;13092;51.996;4.458;2023-04-07T05:33:12;31.90;;;29.13;;
25111;SDS011;13092;51.996;4.458;2023-04-07T05:35:40;31.67;;;28.98;;
25111;SDS011;13092;51.996;4.458;2023-04-07T05:38:10;31.77;;;28.88;;
25111;SDS011;13092;51.996;4.458;2023-04-07T05:40:39;31.45;;;28.58;;
25111;SDS011;13092;51.996;4.458;2023-04-07T05:43:07;31.65;;;28.85;;
25111;SDS011;13092;51.996;4.458;2023-04-07T05:45:35;31.38;;;28.55;;
25111;SDS011;13092;51.996;4.458;2023-04-07T05:48:06;31.10;;;28.70;;
25111;SDS011;13092;51.996;4.458;2023-04-07T05:50:34;32.17;;;29.33;;
25111;SDS011;13092;51.996;4.458;2023-04-07T05:53:02;31.60;;;28.90;;
25111;SDS011;13092;51.996;4.458;2023-04-07T05:55:31;31.63;;;28.70;;
25111;SDS011;13092;51.996;4.458;2023-04-07T05:57:59;33.60;;;30.30;;
25111;SDS011;13092;51.996;4.458;2023-04-07T06:00:27;32.30;;;29.38;;
25111;SDS011;13092;51.996;4.458;2023-04-07T06:02:55;32.05;;;29.33;;
25111;SDS011;13092;51.996;4.458;2023-04-07T06:05:25;32.13;;;29.38;;
25111;SDS011;13092;51.996;4.458;2023-04-07T06:07:56;32.35;;;29.67;;
25111;SDS011;13092;51.996;4.458;2023-04-07T06:10:24;32.85;;;30.00;;
25111;SDS011;13092;51.996;4.458;2023-04-07T06:12:52;32.20;;;29.27;;
25111;SDS011;13092;51.996;4.458;2023-04-07T06:15:21;32.60;;;29.55;;
25111;SDS011;13092;51.996;4.458;2023-04-07T06:17:51;32.35;;;29.77;;
25111;SDS011;13092;51.996;4.458;2023-04-07T06:20:20;33.75;;;30.38;;
25111;SDS011;13092;51.996;4.458;2023-04-07T06:22:49;32.58;;;29.60;;
25111;SDS011;13092;51.996;4.458;2023-04-07T06:25:17;32.53;;;29.80;;
25111;SDS011;13092;51.996;4.458;2023-04-07T06:27:46;32.15;;;29.38;;
25111;SDS011;13092;51.996;4.458;2023-04-07T06:30:15;32.22;;;29.42;;
25111;SDS011;13092;51.996;4.458;2023-04-07T06:32:44;32.45;;;29.55;;
25111;SDS011;13092;51.996;4.458;2023-04-07T06:35:12;32.33;;;29.40;;
25111;SDS011;13092;51.996;4.458;2023-04-07T06:37:40;32.80;;;29.92;;
25111;SDS011;13092;51.996;4.458;2023-04-07T06:40:10;34.30;;;29.85;;
25111;SDS011;13092;51.996;4.458;2023-04-07T06:42:38;32.70;;;29.70;;
25111;SDS011;13092;51.996;4.458;2023-04-07T06:45:07;32.92;;;30.20;;
25111;SDS011;13092;51.996;4.458;2023-04-07T06:47:36;33.47;;;29.85;;
25111;SDS011;13092;51.996;4.458;2023-04-07T06:50:05;32.90;;;29.95;;
25111;SDS011;13092;51.996;4.458;2023-04-07T06:52:35;33.08;;;30.05;;
25111;SDS011;13092;51.996;4.458;2023-04-07T06:55:03;33.45;;;30.25;;
25111;SDS011;13092;51.996;4.458;2023-04-07T06:57:36;32.95;;;29.88;;
25111;SDS011;13092;51.996;4.458;2023-04-07T07:00:06;33.20;;;30.27;;
25111;SDS011;13092;51.996;4.458;2023-04-07T07:02:36;31.75;;;29.02;;
25111;SDS011;13092;51.996;4.458;2023-04-07T07:05:05;32.85;;;29.83;;
25111;SDS011;13092;51.996;4.458;2023-04-07T07:07:33;33.08;;;29.92;;
25111;SDS011;13092;51.996;4.458;2023-04-07T07:10:02;32.80;;;30.00;;
25111;SDS011;13092;51.996;4.458;2023-04-07T07:12:30;32.72;;;29.92;;
25111;SDS011;13092;51.996;4.458;2023-04-07T07:15:00;32.92;;;29.98;;
25111;SDS011;13092;51.996;4.458;2023-04-07T07:17:29;33.85;;;30.58;;
25111;SDS011;13092;51.996;4.458;2023-04-07T07:19:57;33.00;;;30.10;;
25111;SDS011;13092;51.996;4.458;2023-04-07T07:22:25;33.33;;;30.42;;
25111;SDS011;13092;51.996;4.458;2023-04-07T07:24:53;33.83;;;30.98;;
25111;SDS011;13092;51.996;4.458;2023-04-07T07:27:21;32.60;;;29.70;;
25111;SDS011;13092;51.996;4.458;2023-04-07T07:29:50;33.38;;;30.33;;
25111;SDS011;13092;51.996;4.458;2023-04-07T07:32:19;33.63;;;30.20;;
25111;SDS011;13092;51.996;4.458;2023-04-07T07:34:48;33.88;;;30.65;;
25111;SDS011;13092;51.996;4.458;2023-04-07T07:37:18;34.22;;;31.08;;
25111;SDS011;13092;51.996;4.458;2023-04-07T07:39:47;34.70;;;31.25;;
25111;SDS011;13092;51.996;4.458;2023-04-07T07:42:15;33.95;;;30.75;;
25111;SDS011;13092;51.996;4.458;2023-04-07T07:44:43;33.92;;;30.92;;
25111;SDS011;13092;51.996;4.458;2023-04-07T07:47:11;35.40;;;32.10;;
25111;SDS011;13092;51.996;4.458;2023-04-07T07:49:41;34.20;;;31.33;;
25111;SDS011;13092;51.996;4.458;2023-04-07T07:52:09;34.30;;;31.33;;
25111;SDS011;13092;51.996;4.458;2023-04-07T07:54:42;34.03;;;31.02;;
25111;SDS011;13092;51.996;4.458;2023-04-07T07:57:10;34.65;;;31.42;;
25111;SDS011;13092;51.996;4.458;2023-04-07T07:59:38;34.90;;;31.88;;
25111;SDS011;13092;51.996;4.458;2023-04-07T08:02:13;34.45;;;31.45;;
25111;SDS011;13092;51.996;4.458;2023-04-07T08:04:42;35.50;;;32.20;;
25111;SDS011;13092;51.996;4.458;2023-04-07T08:07:13;36.10;;;32.83;;
25111;SDS011;13092;51.996;4.458;2023-04-07T08:09:41;35.92;;;32.42;;
25111;SDS011;13092;51.996;4.458;2023-04-07T08:12:09;34.78;;;31.67;;
25111;SDS011;13092;51.996;4.458;2023-04-07T08:14:38;34.97;;;31.98;;
25111;SDS011;13092;51.996;4.458;2023-04-07T08:17:06;34.97;;;31.88;;
25111;SDS011;13092;51.996;4.458;2023-04-07T08:19:36;35.30;;;32.00;;
25111;SDS011;13092;51.996;4.458;2023-04-07T08:22:10;36.75;;;33.17;;
25111;SDS011;13092;51.996;4.458;2023-04-07T08:24:38;34.97;;;31.90;;
25111;SDS011;13092;51.996;4.458;2023-04-07T08:27:10;36.17;;;32.47;;
25111;SDS011;13092;51.996;4.458;2023-04-07T08:29:41;36.42;;;33.00;;
25111;SDS011;13092;51.996;4.458;2023-04-07T08:32:10;36.15;;;32.70;;
25111;SDS011;13092;51.996;4.458;2023-04-07T08:34:38;35.45;;;32.35;;
25111;SDS011;13092;51.996;4.458;2023-04-07T08:37:06;35.22;;;31.95;;
25111;SDS011;13092;51.996;4.458;2023-04-07T08:39:36;35.35;;;31.88;;
25111;SDS011;13092;51.996;4.458;2023-04-07T08:42:04;36.55;;;33.00;;
25111;SDS011;13092;51.996;4.458;2023-04-07T08:44:34;37.35;;;34.00;;
25111;SDS011;13092;51.996;4.458;2023-04-07T08:47:04;36.60;;;33.13;;
25111;SDS011;13092;51.996;4.458;2023-04-07T08:49:36;36.50;;;33.20;;
25111;SDS011;13092;51.996;4.458;2023-04-07T08:52:07;35.08;;;32.05;;
25111;SDS011;13092;51.996;4.458;2023-04-07T08:54:42;35.70;;;32.45;;
25111;SDS011;13092;51.996;4.458;2023-04-07T08:57:11;37.22;;;33.55;;
25111;SDS011;13092;51.996;4.458;2023-04-07T08:59:42;36.17;;;32.88;;
25111;SDS011;13092;51.996;4.458;2023-04-07T09:02:14;34.97;;;31.80;;
25111;SDS011;13092;51.996;4.458;2023-04-07T09:04:42;35.75;;;32.33;;
25111;SDS011;13092;51.996;4.458;2023-04-07T09:07:11;36.67;;;33.42;;
25111;SDS011;13092;51.996;4.458;2023-04-07T09:09:39;37.05;;;33.83;;
25111;SDS011;13092;51.996;4.458;2023-04-07T09:12:09;37.35;;;34.00;;
25111;SDS011;13092;51.996;4.458;2023-04-07T09:14:38;37.58;;;34.05;;
25111;SDS011;13092;51.996;4.458;2023-04-07T09:17:06;37.95;;;34.47;;
25111;SDS011;13092;51.996;4.458;2023-04-07T09:19:34;36.85;;;33.78;;
25111;SDS011;13092;51.996;4.458;2023-04-07T09:22:03;37.83;;;34.60;;
25111;SDS011;13092;51.996;4.458;2023-04-07T09:24:31;38.00;;;34.65;;
25111;SDS011;13092;51.996;4.458;2023-04-07T09:27:10;37.88;;;34.88;;
25111;SDS011;13092;51.996;4.458;2023-04-07T09:29:43;37.38;;;34.35;;
25111;SDS011;13092;51.996;4.458;2023-04-07T09:32:16;37.47;;;34.35;;
25111;SDS011;13092;51.996;4.458;2023-04-07T09:35:02;38.58;;;35.55;;
25111;SDS011;13092;51.996;4.458;2023-04-07T09:37:33;38.10;;;34.65;;
25111;SDS011;13092;51.996;4.458;2023-04-07T09:40:01;38.40;;;35.05;;
25111;SDS011;13092;51.996;4.458;2023-04-07T09:42:32;38.35;;;35.05;;
25111;SDS011;13092;51.996;4.458;2023-04-07T09:45:03;37.70;;;34.70;;
25111;SDS011;13092;51.996;4.458;2023-04-07T09:47:32;39.35;;;36.25;;
25111;SDS011;13092;51.996;4.458;2023-04-07T09:50:02;39.60;;;36.05;;
25111;SDS011;13092;51.996;4.458;2023-04-07T09:52:51;38.22;;;35.17;;
25111;SDS011;13092;51.996;4.458;2023-04-07T09:55:20;39.88;;;36.42;;
25111;SDS011;13092;51.996;4.458;2023-04-07T09:57:50;38.40;;;35.40;;
25111;SDS011;13092;51.996;4.458;2023-04-07T10:00:23;37.28;;;34.28;;
25111;SDS011;13092;51.996;4.458;2023-04-07T10:02:52;38.20;;;35.30;;
25111;SDS011;13092;51.996;4.458;2023-04-07T10:05:24;38.60;;;35.05;;
25111;SDS011;13092;51.996;4.458;2023-04-07T10:08:01;39.80;;;35.95;;
25111;SDS011;13092;51.996;4.458;2023-04-07T10:10:32;39.75;;;36.17;;
25111;SDS011;13092;51.996;4.458;2023-04-07T10:13:10;39.63;;;36.10;;
25111;SDS011;13092;51.996;4.458;2023-04-07T10:15:40;40.35;;;36.38;;
25111;SDS011;13092;51.996;4.458;2023-04-07T10:18:10;38.55;;;35.38;;
25111;SDS011;13092;51.996;4.458;2023-04-07T10:20:41;40.00;;;36.25;;
25111;SDS011;13092;51.996;4.458;2023-04-07T10:23:20;41.25;;;37.30;;
25111;SDS011;13092;51.996;4.458;2023-04-07T10:25:52;40.92;;;37.28;;
25111;SDS011;13092;51.996;4.458;2023-04-07T10:28:26;40.95;;;37.30;;
25111;SDS011;13092;51.996;4.458;2023-04-07T10:31:06;41.20;;;37.60;;
25111;SDS011;13092;51.996;4.458;2023-04-07T10:33:47;40.80;;;37.28;;
25111;SDS011;13092;51.996;4.458;2023-04-07T10:36:18;41.03;;;37.22;;
25111;SDS011;13092;51.996;4.458;2023-04-07T10:41:47;41.63;;;37.58;;
25111;SDS011;13092;51.996;4.458;2023-04-07T10:47:22;40.75;;;37.20;;
25111;SDS011;13092;51.996;4.458;2023-04-07T10:52:42;40.80;;;37.35;;
25111;SDS011;13092;51.996;4.458;2023-04-07T10:58:16;41.63;;;37.70;;
25111;SDS011;13092;51.996;4.458;2023-04-07T11:03:58;40.88;;;37.08;;
25111;SDS011;13092;51.996;4.458;2023-04-07T11:06:32;40.47;;;36.72;;
25111;SDS011;13092;51.996;4.458;2023-04-07T11:09:00;40.20;;;36.70;;
25111;SDS011;13092;51.996;4.458;2023-04-07T11:11:37;42.15;;;37.67;;
25111;SDS011;13092;51.996;4.458;2023-04-07T11:14:07;40.83;;;36.85;;
25111;SDS011;13092;51.996;4.458;2023-04-07T11:16:46;40.97;;;37.28;;
25111;SDS011;13092;51.996;4.458;2023-04-07T11:19:19;40.50;;;37.10;;
25111;SDS011;13092;51.996;4.458;2023-04-07T11:21:48;40.72;;;37.42;;
25111;SDS011;13092;51.996;4.458;2023-04-07T11:27:10;40.38;;;36.67;;
25111;SDS011;13092;51.996;4.458;2023-04-07T11:29:43;41.60;;;37.70;;
25111;SDS011;13092;51.996;4.458;2023-04-07T11:32:21;40.78;;;37.30;;
25111;SDS011;13092;51.996;4.458;2023-04-07T11:34:57;41.70;;;38.17;;
25111;SDS011;13092;51.996;4.458;2023-04-07T11:37:43;42.45;;;38.78;;
25111;SDS011;13092;51.996;4.458;2023-04-07T11:40:21;41.78;;;38.28;;
25111;SDS011;13092;51.996;4.458;2023-04-07T11:43:14;41.65;;;38.25;;
25111;SDS011;13092;51.996;4.458;2023-04-07T11:45:45;42.78;;;39.03;;
25111;SDS011;13092;51.996;4.458;2023-04-07T11:48:25;42.97;;;39.33;;
25111;SDS011;13092;51.996;4.458;2023-04-07T11:50:58;42.67;;;38.97;;
25111;SDS011;13092;51.996;4.458;2023-04-07T11:53:42;43.15;;;39.72;;
25111;SDS011;13092;51.996;4.458;2023-04-07T11:56:13;43.13;;;39.35;;
25111;SDS011;13092;51.996;4.458;2023-04-07T11:58:47;42.88;;;39.33;;
25111;SDS011;13092;51.996;4.458;2023-04-07T12:01:16;42.70;;;39.35;;
25111;SDS011;13092;51.996;4.458;2023-04-07T12:03:54;42.40;;;39.03;;
25111;SDS011;13092;51.996;4.458;2023-04-07T12:06:27;42.45;;;39.28;;
25111;SDS011;13092;51.996;4.458;2023-04-07T12:08:59;42.75;;;39.42;;
25111;SDS011;13092;51.996;4.458;2023-04-07T12:11:28;43.38;;;40.03;;
25111;SDS011;13092;51.996;4.458;2023-04-07T12:13:58;42.53;;;39.10;;
25111;SDS011;13092;51.996;4.458;2023-04-07T12:16:31;42.38;;;39.05;;
25111;SDS011;13092;51.996;4.458;2023-04-07T12:18:59;43.08;;;39.45;;
25111;SDS011;13092;51.996;4.458;2023-04-07T12:21:29;43.03;;;39.72;;
25111;SDS011;13092;51.996;4.458;2023-04-07T12:23:57;42.97;;;39.70;;
25111;SDS011;13092;51.996;4.458;2023-04-07T12:26:27;44.35;;;41.10;;
25111;SDS011;13092;51.996;4.458;2023-04-07T12:28:56;44.13;;;40.55;;
25111;SDS011;13092;51.996;4.458;2023-04-07T12:31:30;45.28;;;41.60;;
25111;SDS011;13092;51.996;4.458;2023-04-07T12:33:59;44.30;;;41.17;;
25111;SDS011;13092;51.996;4.458;2023-04-07T12:36:31;44.83;;;41.50;;
25111;SDS011;13092;51.996;4.458;2023-04-07T12:38:59;43.75;;;40.47;;
25111;SDS011;13092;51.996;4.458;2023-04-07T12:41:27;44.60;;;41.08;;
25111;SDS011;13092;51.996;4.458;2023-04-07T12:43:58;45.13;;;41.50;;
25111;SDS011;13092;51.996;4.458;2023-04-07T12:46:28;44.58;;;41.35;;
25111;SDS011;13092;51.996;4.458;2023-04-07T12:48:59;44.15;;;40.75;;
25111;SDS011;13092;51.996;4.458;2023-04-07T12:51:27;45.78;;;41.97;;
25111;SDS011;13092;51.996;4.458;2023-04-07T12:53:58;45.92;;;42.65;;
25111;SDS011;13092;51.996;4.458;2023-04-07T12:56:29;45.47;;;42.13;;
25111;SDS011;13092;51.996;4.458;2023-04-07T12:58:57;45.30;;;41.90;;
25111;SDS011;13092;51.996;4.458;2023-04-07T13:01:26;44.65;;;41.28;;
25111;SDS011;13092;51.996;4.458;2023-04-07T13:03:54;45.58;;;41.97;;
25111;SDS011;13092;51.996;4.458;2023-04-07T13:06:24;46.25;;;42.25;;
25111;SDS011;13092;51.996;4.458;2023-04-07T13:08:52;46.28;;;42.25;;
25111;SDS011;13092;51.996;4.458;2023-04-07T13:11:23;46.22;;;41.85;;
25111;SDS011;13092;51.996;4.458;2023-04-07T13:13:51;45.00;;;41.47;;
25111;SDS011;13092;51.996;4.458;2023-04-07T13:16:23;45.08;;;41.28;;
25111;SDS011;13092;51.996;4.458;2023-04-07T13:18:51;45.33;;;41.72;;
25111;SDS011;13092;51.996;4.458;2023-04-07T13:21:20;46.38;;;42.40;;
25111;SDS011;13092;51.996;4.458;2023-04-07T13:23:51;46.83;;;42.38;;
25111;SDS011;13092;51.996;4.458;2023-04-07T13:26:19;46.40;;;42.53;;
25111;SDS011;13092;51.996;4.458;2023-04-07T13:28:49;46.53;;;42.53;;
25111;SDS011;13092;51.996;4.458;2023-04-07T13:31:23;45.72;;;42.05;;
25111;SDS011;13092;51.996;4.458;2023-04-07T13:33:51;47.03;;;43.00;;
25111;SDS011;13092;51.996;4.458;2023-04-07T13:36:24;46.40;;;42.38;;
25111;SDS011;13092;51.996;4.458;2023-04-07T13:38:55;46.05;;;42.15;;
25111;SDS011;13092;51.996;4.458;2023-04-07T13:41:26;46.47;;;42.38;;
25111;SDS011;13092;51.996;4.458;2023-04-07T13:43:55;47.53;;;43.22;;
25111;SDS011;13092;51.996;4.458;2023-04-07T13:46:25;48.15;;;43.47;;
25111;SDS011;13092;51.996;4.458;2023-04-07T13:48:54;47.28;;;43.13;;
25111;SDS011;13092;51.996;4.458;2023-04-07T13:51:25;47.70;;;43.42;;
25111;SDS011;13092;51.996;4.458;2023-04-07T13:53:54;47.17;;;42.78;;
25111;SDS011;13092;51.996;4.458;2023-04-07T13:56:23;46.65;;;42.35;;
25111;SDS011;13092;51.996;4.458;2023-04-07T13:58:51;46.63;;;42.30;;
25111;SDS011;13092;51.996;4.458;2023-04-07T14:01:21;45.65;;;41.28;;
25111;SDS011;13092;51.996;4.458;2023-04-07T14:03:49;45.72;;;41.47;;
25111;SDS011;13092;51.996;4.458;2023-04-07T14:06:18;44.92;;;40.78;;
25111;SDS011;13092;51.996;4.458;2023-04-07T14:08:48;44.45;;;40.35;;
25111;SDS011;13092;51.996;4.458;2023-04-07T14:11:16;43.42;;;39.42;;
25111;SDS011;13092;51.996;4.458;2023-04-07T14:13:45;44.78;;;40.67;;
25111;SDS011;13092;51.996;4.458;2023-04-07T14:16:14;44.03;;;39.97;;
25111;SDS011;13092;51.996;4.458;2023-04-07T14:18:44;44.15;;;40.13;;
25111;SDS011;13092;51.996;4.458;2023-04-07T14:21:15;45.20;;;40.53;;
25111;SDS011;13092;51.996;4.458;2023-04-07T14:23:44;43.25;;;39.03;;
25111;SDS011;13092;51.996;4.458;2023-04-07T14:26:12;43.08;;;39.25;;
25111;SDS011;13092;51.996;4.458;2023-04-07T14:28:40;43.72;;;39.72;;
25111;SDS011;13092;51.996;4.458;2023-04-07T14:31:12;44.20;;;39.65;;
25111;SDS011;13092;51.996;4.458;2023-04-07T14:33:41;44.53;;;39.80;;
25111;SDS011;13092;51.996;4.458;2023-04-07T14:36:17;43.78;;;39.78;;
25111;SDS011;13092;51.996;4.458;2023-04-07T14:38:45;42.90;;;39.08;;
25111;SDS011;13092;51.996;4.458;2023-04-07T14:41:15;45.80;;;41.25;;
25111;SDS011;13092;51.996;4.458;2023-04-07T14:43:45;44.60;;;40.15;;
25111;SDS011;13092;51.996;4.458;2023-04-07T14:46:19;44.80;;;40.03;;
25111;SDS011;13092;51.996;4.458;2023-04-07T14:48:49;43.38;;;39.58;;
25111;SDS011;13092;51.996;4.458;2023-04-07T14:51:21;44.28;;;40.22;;
25111;SDS011;13092;51.996;4.458;2023-04-07T14:53:50;42.35;;;38.92;;
25111;SDS011;13092;51.996;4.458;2023-04-07T14:56:24;45.00;;;41.00;;
25111;SDS011;13092;51.996;4.458;2023-04-07T14:58:53;44.33;;;40.55;;